createdAt,value
2017-10-02T00:00:13.381Z,87.55
2017-10-02T00:01:23.633Z,87.5
2017-10-02T00:02:33.889Z,87.55
2017-10-02T00:03:44.166Z,87.55
2017-10-02T00:04:54.410Z,87.84
2017-10-02T00:06:04.601Z,88.03
2017-10-02T00:07:14.548Z,88.31
2017-10-02T00:08:24.800Z,87.93
2017-10-02T00:09:35.069Z,88.41
2017-10-02T00:10:45.316Z,88.12
2017-10-02T00:11:55.806Z,87.55
2017-10-02T00:13:05.435Z,88.12
2017-10-02T00:14:15.358Z,87.74
2017-10-02T00:15:25.601Z,87.84
2017-10-02T00:16:35.843Z,87.84
2017-10-02T00:17:46.338Z,88.03
2017-10-02T00:18:56.595Z,87.36
2017-10-02T00:20:06.526Z,87.46
2017-10-02T00:21:16.780Z,87.46
2017-10-02T00:22:26.723Z,87.55
2017-10-02T00:23:37.245Z,87.84
2017-10-02T00:24:47.498Z,87.46
2017-10-02T00:25:57.761Z,87.65
2017-10-02T00:27:08.019Z,87.65
2017-10-02T00:28:18.267Z,87.55
2017-10-02T00:29:28.459Z,87.84
2017-10-02T00:30:38.705Z,87.36
2017-10-02T00:31:48.649Z,87.55
2017-10-02T00:32:58.582Z,87.74
2017-10-02T00:34:08.828Z,87.36
2017-10-02T00:35:19.006Z,87.84
2017-10-02T00:36:28.622Z,87.36
2017-10-02T00:37:38.873Z,87.55
2017-10-02T00:38:48.797Z,87.36
2017-10-02T00:39:59.037Z,87.55
2017-10-02T00:41:09.538Z,87.36
2017-10-02T00:42:19.791Z,87.55
2017-10-02T00:43:30.047Z,87.55
2017-10-02T00:44:40.294Z,87.55
2017-10-02T00:45:49.914Z,87.46
2017-10-02T00:47:00.409Z,87.27
2017-10-02T00:48:10.664Z,87.55
2017-10-02T00:49:20.601Z,87.55
2017-10-02T00:50:30.850Z,87.46
2017-10-02T00:51:41.107Z,87.46
2017-10-02T00:52:51.287Z,87.46
2017-10-02T00:54:01.215Z,87.46
2017-10-02T00:55:11.463Z,87.36
2017-10-02T00:56:21.078Z,87.46
2017-10-02T00:57:31.323Z,87.46
2017-10-02T00:58:41.515Z,87.36
2017-10-02T00:59:51.753Z,87.46
2017-10-02T01:01:01.993Z,87.32
2017-10-02T01:02:12.241Z,87.51
2017-10-02T01:03:22.487Z,87.55
2017-10-02T01:04:32.671Z,87.65
2017-10-02T01:05:42.600Z,87.55
2017-10-02T01:06:52.545Z,87.55
2017-10-02T01:08:02.476Z,87.55
2017-10-02T01:09:12.727Z,87.55
2017-10-02T01:10:23.231Z,87.51
2017-10-02T01:11:33.473Z,87.51
2017-10-02T01:12:43.403Z,87.89
2017-10-02T01:13:53.651Z,87.51
2017-10-02T01:15:03.263Z,87.32
2017-10-02T01:16:13.768Z,87.79
2017-10-02T01:17:24.030Z,87.7
2017-10-02T01:18:33.986Z,87.6
2017-10-02T01:19:43.911Z,87.79
2017-10-02T01:20:54.155Z,87.32
2017-10-02T01:22:04.651Z,87.51
2017-10-02T01:23:14.893Z,87.32
2017-10-02T01:24:24.829Z,87.32
2017-10-02T01:25:35.085Z,87.79
2017-10-02T01:26:45.332Z,87.51
2017-10-02T01:27:55.847Z,87.51
2017-10-02T01:29:06.086Z,87.51
2017-10-02T01:30:16.342Z,87.51
2017-10-02T01:31:26.586Z,87.51
2017-10-02T01:32:36.835Z,87.51
2017-10-02T01:33:47.009Z,87.23
2017-10-02T01:34:57.265Z,87.32
2017-10-02T01:36:07.520Z,87.41
2017-10-02T01:37:17.763Z,87.41
2017-10-02T01:38:27.701Z,87.6
2017-10-02T01:39:38.192Z,87.23
2017-10-02T01:40:48.122Z,87.23
2017-10-02T01:41:58.369Z,87.6
2017-10-02T01:43:08.610Z,87.6
2017-10-02T01:44:18.851Z,87.51
2017-10-02T01:45:28.410Z,87.41
2017-10-02T01:46:38.665Z,87.51
2017-10-02T01:47:48.945Z,87.23
2017-10-02T01:48:59.189Z,87.6
2017-10-02T01:50:09.115Z,87.6
2017-10-02T01:51:19.303Z,87.23
2017-10-02T01:52:29.562Z,87.6
2017-10-02T01:53:39.819Z,87.6
2017-10-02T01:54:50.067Z,87.51
2017-10-02T01:56:00.323Z,87.32
2017-10-02T01:57:10.190Z,87.51
2017-10-02T01:58:19.805Z,87.32
2017-10-02T01:59:30.054Z,87.51
2017-10-02T02:00:40.295Z,87.23
2017-10-02T02:01:50.534Z,87.41
2017-10-02T02:03:00.721Z,87.41
2017-10-02T02:04:10.648Z,87.51
2017-10-02T02:05:20.740Z,87.41
2017-10-02T02:06:30.672Z,87.13
2017-10-02T02:07:40.291Z,87.32
2017-10-02T02:08:50.157Z,87.51
2017-10-02T02:10:00.412Z,87.51
2017-10-02T02:11:10.036Z,87.32
2017-10-02T02:12:19.648Z,87.32
2017-10-02T02:13:29.575Z,87.51
2017-10-02T02:14:40.082Z,87.6
2017-10-02T02:15:50.311Z,87.41
2017-10-02T02:17:00.237Z,87.6
2017-10-02T02:18:10.499Z,87.6
2017-10-02T02:19:20.743Z,87.23
2017-10-02T02:20:30.915Z,87.23
2017-10-02T02:21:40.842Z,87.51
2017-10-02T02:22:50.769Z,87.79
2017-10-02T02:24:00.718Z,87.32
2017-10-02T02:25:10.967Z,87.51
2017-10-02T02:26:21.462Z,87.32
2017-10-02T02:27:31.398Z,87.13
2017-10-02T02:28:41.645Z,87.51
2017-10-02T02:29:50.957Z,87.6
2017-10-02T02:31:00.878Z,87.7
2017-10-02T02:32:11.380Z,87.89
2017-10-02T02:33:21.001Z,87.79
2017-10-02T02:34:30.934Z,87.51
2017-10-02T02:35:40.862Z,87.79
2017-10-02T02:36:50.824Z,87.89
2017-10-02T02:38:01.314Z,87.79
2017-10-02T02:39:11.564Z,87.79
2017-10-02T02:40:21.176Z,87.79
2017-10-02T02:41:31.429Z,87.51
2017-10-02T02:42:41.363Z,87.79
2017-10-02T02:43:51.544Z,87.79
2017-10-02T02:45:01.473Z,87.41
2017-10-02T02:46:11.724Z,87.32
2017-10-02T02:47:21.971Z,87.7
2017-10-02T02:48:31.898Z,87.98
2017-10-02T02:49:42.096Z,87.98
2017-10-02T02:50:52.341Z,88.46
2017-10-02T02:52:02.581Z,88.08
2017-10-02T02:53:12.837Z,87.98
2017-10-02T02:54:22.450Z,88.18
2017-10-02T02:55:32.952Z,88.37
2017-10-02T02:56:42.884Z,88.18
2017-10-02T02:57:52.819Z,88.46
2017-10-02T02:59:02.763Z,88.46
2017-10-02T03:00:12.708Z,88.37
2017-10-02T03:01:23.204Z,88.46
2017-10-02T03:02:33.135Z,88.27
2017-10-02T03:03:43.062Z,88.56
2017-10-02T03:04:52.995Z,88.65
2017-10-02T03:06:03.250Z,88.37
2017-10-02T03:07:13.747Z,88.37
2017-10-02T03:08:23.679Z,88.65
2017-10-02T03:09:33.949Z,88.46
2017-10-02T03:10:43.795Z,88.46
2017-10-02T03:11:54.045Z,88.93
2017-10-02T03:13:04.542Z,88.56
2017-10-02T03:14:14.788Z,88.56
2017-10-02T03:15:24.723Z,88.27
2017-10-02T03:16:34.655Z,88.18
2017-10-02T03:17:44.606Z,88.75
2017-10-02T03:18:55.106Z,88.93
2017-10-02T03:20:05.032Z,88.84
2017-10-02T03:21:15.281Z,88.84
2017-10-02T03:22:25.616Z,88.75
2017-10-02T03:23:35.540Z,88.84
2017-10-02T03:24:46.039Z,88.65
2017-10-02T03:25:55.648Z,89.13
2017-10-02T03:27:05.589Z,89.03
2017-10-02T03:28:15.838Z,89.22
2017-10-02T03:29:26.077Z,89.13
2017-10-02T03:30:36.581Z,89.13
2017-10-02T03:31:46.511Z,89.03
2017-10-02T03:32:56.446Z,89.03
2017-10-02T03:34:06.381Z,89.18
2017-10-02T03:35:16.639Z,89.13
2017-10-02T03:36:27.135Z,89.22
2017-10-02T03:37:37.378Z,89.27
2017-10-02T03:38:47.641Z,89.18
2017-10-02T03:39:57.899Z,89.08
2017-10-02T03:41:08.146Z,89.08
2017-10-02T03:42:18.322Z,89.08
2017-10-02T03:43:28.574Z,89.27
2017-10-02T03:44:38.501Z,88.99
2017-10-02T03:45:48.745Z,88.99
2017-10-02T03:46:58.989Z,89.08
2017-10-02T03:48:09.481Z,89.08
2017-10-02T03:49:19.403Z,89.18
2017-10-02T03:50:29.650Z,89.18
2017-10-02T03:51:39.592Z,88.79
2017-10-02T03:52:49.840Z,88.6
2017-10-02T03:53:59.699Z,88.7
2017-10-02T03:55:09.635Z,88.79
2017-10-02T03:56:19.890Z,88.79
2017-10-02T03:57:30.137Z,88.79
2017-10-02T03:58:40.393Z,88.79
2017-10-02T03:59:50.889Z,88.79
2017-10-02T04:01:00.832Z,88.79
2017-10-02T04:02:11.105Z,88.99
2017-10-02T04:03:21.364Z,88.6
2017-10-02T04:04:31.617Z,88.89
2017-10-02T04:05:42.098Z,88.89
2017-10-02T04:06:52.031Z,88.79
2017-10-02T04:08:02.274Z,88.79
2017-10-02T04:09:11.882Z,88.6
2017-10-02T04:10:21.812Z,88.6
2017-10-02T04:11:32.310Z,88.51
2017-10-02T04:12:42.550Z,88.79
2017-10-02T04:13:52.809Z,88.89
2017-10-02T04:15:03.059Z,88.99
2017-10-02T04:16:13.325Z,88.99
2017-10-02T04:17:23.815Z,89.18
2017-10-02T04:18:34.076Z,88.99
2017-10-02T04:19:44.322Z,89.27
2017-10-02T04:20:54.573Z,89.47
2017-10-02T04:22:04.823Z,89.47
2017-10-02T04:23:15.011Z,89.56
2017-10-02T04:24:24.950Z,89.47
2017-10-02T04:25:34.878Z,89.56
2017-10-02T04:26:45.123Z,89.47
2017-10-02T04:27:55.042Z,89.56
2017-10-02T04:29:05.531Z,89.75
2017-10-02T04:30:15.163Z,89.65
2017-10-02T04:31:24.775Z,89.84
2017-10-02T04:32:34.388Z,89.65
2017-10-02T04:33:44.626Z,90.03
2017-10-02T04:34:55.115Z,89.75
2017-10-02T04:36:05.048Z,89.94
2017-10-02T04:37:15.303Z,89.84
2017-10-02T04:38:24.940Z,89.56
2017-10-02T04:39:35.187Z,89.84
2017-10-02T04:40:45.678Z,89.84
2017-10-02T04:41:55.942Z,89.84
2017-10-02T04:43:06.193Z,89.84
2017-10-02T04:44:16.120Z,89.65
2017-10-02T04:45:26.050Z,89.65
2017-10-02T04:46:36.545Z,90.22
2017-10-02T04:47:46.161Z,90.32
2017-10-02T04:48:56.405Z,90.22
2017-10-02T04:50:06.653Z,90.51
2017-10-02T04:51:16.895Z,90.8
2017-10-02T04:52:27.075Z,90.8
2017-10-02T04:53:37.002Z,90.89
2017-10-02T04:54:46.939Z,91.37
2017-10-02T04:55:56.871Z,91.37
2017-10-02T04:57:07.122Z,91.37
2017-10-02T04:58:17.315Z,91.37
2017-10-02T04:59:27.578Z,91.75
2017-10-02T05:00:37.509Z,92.51
2017-10-02T05:01:47.759Z,93.18
2017-10-02T05:02:57.708Z,92.6
2017-10-02T05:04:07.891Z,92.99
2017-10-02T05:05:18.161Z,94.22
2017-10-02T05:06:28.096Z,94.89
2017-10-02T05:07:38.337Z,95.27
2017-10-02T05:08:48.261Z,96.22
2017-10-02T05:09:58.767Z,97.08
2017-10-02T05:11:09.016Z,97.36
2017-10-02T05:12:18.945Z,98.6
2017-10-02T05:13:28.882Z,98.98
2017-10-02T05:14:38.810Z,99.99
2017-10-02T05:15:48.998Z,99.99
2017-10-02T05:16:58.924Z,99.99
2017-10-02T05:18:09.169Z,99.99
2017-10-02T05:19:19.416Z,99.99
2017-10-02T05:20:29.656Z,99.99
2017-10-02T05:21:39.854Z,99.99
2017-10-02T05:22:50.098Z,99.99
2017-10-02T05:23:59.706Z,99.99
2017-10-02T05:25:09.954Z,99.99
2017-10-02T05:26:19.881Z,99.99
2017-10-02T05:27:30.374Z,99.99
2017-10-02T05:28:40.619Z,99.99
2017-10-02T05:29:50.847Z,99.99
2017-10-02T05:31:00.781Z,99.99
2017-10-02T05:32:11.028Z,99.99
2017-10-02T05:33:21.533Z,99.99
2017-10-02T05:34:31.783Z,99.99
2017-10-02T05:35:42.030Z,99.99
2017-10-02T05:36:52.271Z,99.99
2017-10-02T05:38:02.525Z,99.99
2017-10-02T05:39:13.038Z,99.99
2017-10-02T05:40:23.272Z,99.99
2017-10-02T05:41:33.520Z,99.99
2017-10-02T05:42:43.759Z,99.99
2017-10-02T05:43:53.686Z,99.99
2017-10-02T05:45:04.182Z,99.99
2017-10-02T05:46:14.117Z,99.99
2017-10-02T05:47:24.366Z,99.99
2017-10-02T05:48:34.622Z,99.99
2017-10-02T05:49:44.857Z,99.99
2017-10-02T05:50:55.044Z,99.99
2017-10-02T05:52:05.293Z,99.99
2017-10-02T05:53:15.561Z,99.99
2017-10-02T05:54:25.807Z,99.99
2017-10-02T05:55:35.742Z,99.99
2017-10-02T05:56:46.236Z,99.99
2017-10-02T05:57:56.486Z,99.99
2017-10-02T05:59:06.418Z,99.99
2017-10-02T06:00:16.353Z,99.99
2017-10-02T06:01:26.603Z,99.99
2017-10-02T06:02:36.784Z,99.99
2017-10-02T06:03:47.030Z,99.99
2017-10-02T06:04:57.273Z,99.99
2017-10-02T06:06:07.519Z,99.99
2017-10-02T06:07:17.462Z,99.99
2017-10-02T06:08:27.977Z,99.99
2017-10-02T06:09:38.230Z,99.99
2017-10-02T06:10:48.460Z,99.99
2017-10-02T06:11:58.397Z,99.99
2017-10-02T06:13:08.638Z,99.99
2017-10-02T06:14:19.150Z,99.99
2017-10-02T06:15:29.082Z,99.99
2017-10-02T06:16:39.323Z,99.99
2017-10-02T06:17:49.257Z,99.99
2017-10-02T06:18:59.505Z,99.99
2017-10-02T06:20:10.024Z,99.99
2017-10-02T06:21:20.289Z,99.99
2017-10-02T06:22:30.550Z,99.99
2017-10-02T06:23:40.494Z,99.99
2017-10-02T06:24:50.745Z,99.99
2017-10-02T06:26:00.919Z,99.99
2017-10-02T06:27:10.852Z,99.99
2017-10-02T06:28:21.112Z,99.99
2017-10-02T06:29:31.359Z,99.99
2017-10-02T06:30:41.296Z,99.99
2017-10-02T06:31:51.495Z,99.99
2017-10-02T06:33:01.430Z,99.99
2017-10-02T06:34:11.682Z,99.99
2017-10-02T06:35:21.934Z,99.99
2017-10-02T06:36:32.187Z,99.99
2017-10-02T06:37:42.675Z,99.99
2017-10-02T06:38:52.915Z,99.99
2017-10-02T06:40:03.158Z,99.99
2017-10-02T06:41:13.422Z,99.99
2017-10-02T06:42:23.677Z,99.99
2017-10-02T06:43:34.178Z,99.99
2017-10-02T06:44:44.124Z,99.99
2017-10-02T06:45:54.051Z,99.99
2017-10-02T06:47:04.392Z,99.99
2017-10-02T06:48:14.644Z,99.99
2017-10-02T06:49:24.832Z,99.99
2017-10-02T06:50:35.084Z,99.99
2017-10-02T06:51:45.018Z,99.99
2017-10-02T06:52:54.961Z,99.99
2017-10-02T06:54:05.209Z,99.99
2017-10-02T06:55:15.382Z,99.99
2017-10-02T06:56:25.015Z,99.99
2017-10-02T06:57:34.630Z,99.99
2017-10-02T06:58:45.340Z,99.99
2017-10-02T06:59:55.581Z,99.99
2017-10-02T07:01:06.095Z,99.99
2017-10-02T07:02:16.025Z,99.99
2017-10-02T07:03:26.290Z,99.99
2017-10-02T07:04:36.538Z,99.99
2017-10-02T07:05:46.471Z,99.99
2017-10-02T07:06:56.972Z,99.99
2017-10-02T07:08:07.212Z,99.99
2017-10-02T07:09:17.158Z,99.99
2017-10-02T07:10:27.420Z,99.99
2017-10-02T07:11:37.674Z,99.99
2017-10-02T07:12:48.208Z,99.99
2017-10-02T07:13:58.464Z,99.99
2017-10-02T07:15:08.952Z,99.99
2017-10-02T07:16:19.198Z,99.99
2017-10-02T07:17:29.447Z,99.99
2017-10-02T07:18:39.947Z,99.99
2017-10-02T07:19:50.187Z,99.99
2017-10-02T07:21:00.119Z,99.99
2017-10-02T07:22:10.377Z,99.99
2017-10-02T07:23:20.001Z,99.99
2017-10-02T07:24:30.502Z,99.99
2017-10-02T07:25:40.758Z,99.99
2017-10-02T07:26:50.692Z,99.99
2017-10-02T07:28:00.653Z,99.99
2017-10-02T07:29:10.586Z,99.99
2017-10-02T07:30:20.767Z,99.99
2017-10-02T07:31:30.705Z,99.99
2017-10-02T07:32:40.633Z,99.99
2017-10-02T07:33:50.881Z,99.99
2017-10-02T07:35:01.137Z,99.99
2017-10-02T07:36:11.684Z,99.99
2017-10-02T07:37:21.936Z,99.99
2017-10-02T07:38:31.556Z,99.99
2017-10-02T07:39:41.811Z,99.99
2017-10-02T07:40:52.056Z,99.99
2017-10-02T07:42:02.567Z,99.99
2017-10-02T07:43:12.816Z,99.99
2017-10-02T07:44:23.066Z,99.99
2017-10-02T07:45:32.996Z,99.99
2017-10-02T07:46:42.934Z,99.99
2017-10-02T07:47:53.120Z,99.99
2017-10-02T07:49:03.368Z,99.99
2017-10-02T07:50:12.989Z,99.99
2017-10-02T07:51:23.242Z,99.99
2017-10-02T07:52:33.176Z,99.99
2017-10-02T07:53:43.380Z,99.99
2017-10-02T07:54:53.642Z,99.99
2017-10-02T07:56:03.266Z,99.99
2017-10-02T07:57:13.529Z,99.99
2017-10-02T07:58:23.470Z,99.99
2017-10-02T07:59:33.975Z,99.99
2017-10-02T08:00:44.218Z,99.99
2017-10-02T08:01:54.161Z,99.99
2017-10-02T08:03:04.108Z,99.99
2017-10-02T08:04:14.361Z,99.99
2017-10-02T08:05:24.862Z,99.99
2017-10-02T08:06:35.113Z,99.99
2017-10-02T08:07:45.068Z,99.99
2017-10-02T08:08:55.317Z,99.99
2017-10-02T08:10:05.592Z,99.99
2017-10-02T08:11:16.086Z,99.99
2017-10-02T08:12:26.017Z,99.99
2017-10-02T08:13:36.297Z,99.99
2017-10-02T08:14:46.245Z,99.99
2017-10-02T08:15:56.503Z,99.99
2017-10-02T08:17:07.037Z,99.99
2017-10-02T08:18:17.304Z,99.99
2017-10-02T08:19:27.554Z,99.99
2017-10-02T08:20:37.806Z,99.99
2017-10-02T08:21:46.811Z,99.99
2017-10-02T08:22:57.341Z,99.99
2017-10-02T08:24:07.585Z,99.99
2017-10-02T08:25:17.845Z,99.99
2017-10-02T08:26:27.789Z,99.99
2017-10-02T08:27:38.036Z,99.99
2017-10-02T08:28:48.535Z,99.99
2017-10-02T08:29:58.181Z,99.99
2017-10-02T08:31:08.448Z,99.99
2017-10-02T08:32:18.704Z,99.99
2017-10-02T08:33:28.960Z,99.99
2017-10-02T08:34:39.152Z,99.99
2017-10-02T08:35:49.401Z,99.99
2017-10-02T08:36:59.648Z,99.99
2017-10-02T08:38:09.955Z,99.99
2017-10-02T08:39:20.212Z,99.62
2017-10-02T08:40:30.717Z,99.71
2017-10-02T08:41:40.967Z,99.99
2017-10-02T08:42:50.902Z,99.85
2017-10-02T08:44:01.153Z,98.9
2017-10-02T08:45:11.408Z,99.28
2017-10-02T08:46:21.587Z,98.61
2017-10-02T08:47:31.514Z,99.66
2017-10-02T08:48:41.767Z,99.85
2017-10-02T08:49:52.015Z,98.9
2017-10-02T08:51:02.276Z,98.61
2017-10-02T08:52:12.481Z,97.47
2017-10-02T08:53:22.738Z,97.61
2017-10-02T08:54:33.000Z,96.94
2017-10-02T08:55:42.950Z,96.84
2017-10-02T08:56:52.893Z,95.89
2017-10-02T08:58:03.422Z,95.03
2017-10-02T08:59:13.403Z,95.51
2017-10-02T09:00:23.657Z,95.36
2017-10-02T09:01:33.586Z,95.36
2017-10-02T09:02:43.528Z,94.79
2017-10-02T09:03:54.028Z,94.6
2017-10-02T09:05:03.972Z,94.79
2017-10-02T09:06:13.917Z,94.31
2017-10-02T09:07:24.209Z,94.6
2017-10-02T09:08:34.155Z,94.41
2017-10-02T09:09:44.359Z,93.69
2017-10-02T09:10:54.301Z,94.7
2017-10-02T09:12:04.556Z,93.98
2017-10-02T09:13:14.817Z,92.59
2017-10-02T09:14:24.771Z,93.07
2017-10-02T09:15:35.273Z,93.55
2017-10-02T09:16:45.519Z,93.84
2017-10-02T09:17:55.775Z,93.64
2017-10-02T09:19:06.044Z,93.26
2017-10-02T09:20:15.671Z,93.07
2017-10-02T09:21:26.185Z,92.88
2017-10-02T09:22:36.445Z,92.78
2017-10-02T09:23:46.385Z,93.16
2017-10-02T09:24:56.025Z,92.69
2017-10-02T09:26:06.301Z,92.4
2017-10-02T09:27:16.502Z,92.49
2017-10-02T09:28:26.753Z,92.4
2017-10-02T09:29:36.995Z,92.78
2017-10-02T09:30:47.263Z,93.07
2017-10-02T09:31:57.512Z,91.73
2017-10-02T09:33:07.383Z,91.53
2017-10-02T09:34:17.638Z,91.83
2017-10-02T09:35:27.895Z,92.11
2017-10-02T09:36:37.521Z,91.87
2017-10-02T09:37:47.771Z,91.3
2017-10-02T09:38:58.302Z,90.63
2017-10-02T09:40:08.235Z,90.15
2017-10-02T09:41:18.508Z,91.11
2017-10-02T09:42:28.446Z,90.63
2017-10-02T09:43:38.703Z,90.05
2017-10-02T09:44:48.880Z,89.95
2017-10-02T09:45:58.822Z,89.95
2017-10-02T09:47:09.083Z,90
2017-10-02T09:48:19.331Z,89.23
2017-10-02T09:49:29.588Z,89.14
2017-10-02T09:50:39.768Z,88.76
2017-10-02T09:51:50.020Z,87.8
2017-10-02T09:53:00.277Z,87.7
2017-10-02T09:54:10.546Z,88.18
2017-10-02T09:55:20.807Z,87.99
2017-10-02T09:56:31.296Z,87.7
2017-10-02T09:57:41.561Z,88.18
2017-10-02T09:58:51.835Z,88.09
2017-10-02T10:00:02.104Z,87.32
2017-10-02T10:01:12.368Z,87.17
2017-10-02T10:02:22.561Z,86.6
2017-10-02T10:03:32.811Z,86.02
2017-10-02T10:04:42.753Z,85.83
2017-10-02T10:05:53.004Z,86.41
2017-10-02T10:07:03.273Z,86.02
2017-10-02T10:08:13.783Z,86.12
2017-10-02T10:09:24.027Z,86.12
2017-10-02T10:10:33.645Z,86.5
2017-10-02T10:11:43.605Z,86.69
2017-10-02T10:12:53.551Z,86.84
2017-10-02T10:14:03.756Z,86.02
2017-10-02T10:15:14.013Z,86.02
2017-10-02T10:16:24.270Z,86.02
2017-10-02T10:17:34.532Z,86.69
2017-10-02T10:18:44.470Z,86.12
2017-10-02T10:19:54.969Z,86.02
2017-10-02T10:21:05.221Z,86.12
2017-10-02T10:22:14.843Z,85.45
2017-10-02T10:23:25.091Z,86.69
2017-10-02T10:24:35.350Z,85.83
2017-10-02T10:25:45.553Z,86.02
2017-10-02T10:26:55.828Z,86.21
2017-10-02T10:28:05.764Z,85.83
2017-10-02T10:29:16.016Z,86.69
2017-10-02T10:30:26.263Z,86.6
2017-10-02T10:31:36.456Z,87.08
2017-10-02T10:32:46.408Z,87.08
2017-10-02T10:33:56.649Z,86.31
2017-10-02T10:35:06.894Z,86.79
2017-10-02T10:36:16.848Z,85.83
2017-10-02T10:37:27.056Z,87.17
2017-10-02T10:38:37.342Z,87.17
2017-10-02T10:39:47.595Z,87.17
2017-10-02T10:40:57.542Z,87.08
2017-10-02T10:42:07.797Z,87.94
2017-10-02T10:43:18.294Z,87.94
2017-10-02T10:44:27.917Z,87.65
2017-10-02T10:45:38.175Z,87.27
2017-10-02T10:46:48.471Z,87.94
2017-10-02T10:47:58.433Z,87.84
2017-10-02T10:49:08.639Z,87.74
2017-10-02T10:50:18.910Z,87.84
2017-10-02T10:51:29.177Z,87.65
2017-10-02T10:52:40.121Z,87.84
2017-10-02T10:53:50.076Z,88.13
2017-10-02T10:55:00.585Z,88.03
2017-10-02T10:56:10.862Z,87.74
2017-10-02T10:57:21.117Z,87.94
2017-10-02T10:58:31.372Z,88.8
2017-10-02T10:59:41.004Z,88.03
2017-10-02T11:00:51.508Z,88.7
2017-10-02T11:02:01.755Z,89.09
2017-10-02T11:03:11.701Z,88.8
2017-10-02T11:04:21.647Z,88.8
2017-10-02T11:05:31.580Z,87.84
2017-10-02T11:06:42.086Z,88.99
2017-10-02T11:07:52.338Z,89.95
2017-10-02T11:09:02.597Z,89.09
2017-10-02T11:10:12.867Z,89.66
2017-10-02T11:11:22.816Z,91.1
2017-10-02T11:12:33.317Z,90.81
2017-10-02T11:13:43.573Z,91.34
2017-10-02T11:14:53.536Z,91.44
2017-10-02T11:16:03.480Z,91.72
2017-10-02T11:17:13.723Z,91.82
2017-10-02T11:18:24.246Z,92.11
2017-10-02T11:19:34.505Z,92.68
2017-10-02T11:20:44.442Z,93.16
2017-10-02T11:21:54.382Z,93.64
2017-10-02T11:23:04.637Z,93.74
2017-10-02T11:24:14.515Z,94.69
2017-10-02T11:25:24.768Z,94.69
2017-10-02T11:26:35.025Z,95.65
2017-10-02T11:27:45.276Z,95.27
2017-10-02T11:28:55.533Z,95.03
2017-10-02T11:30:05.742Z,97.33
2017-10-02T11:31:16.008Z,98.47
2017-10-02T11:32:25.938Z,98.66
2017-10-02T11:33:36.201Z,99.91
2017-10-02T11:34:46.446Z,99.99
2017-10-02T11:35:56.940Z,99.99
2017-10-02T11:37:06.881Z,99.99
2017-10-02T11:38:16.819Z,99.99
2017-10-02T11:39:27.080Z,99.99
2017-10-02T11:40:36.749Z,99.99
2017-10-02T11:41:47.253Z,99.99
2017-10-02T11:42:57.493Z,99.99
2017-10-02T11:44:07.764Z,99.99
2017-10-02T11:45:18.025Z,99.99
2017-10-02T11:46:28.283Z,99.99
2017-10-02T11:47:38.472Z,99.99
2017-10-02T11:48:48.422Z,99.99
2017-10-02T11:49:58.372Z,99.99
2017-10-02T11:51:08.618Z,99.99
2017-10-02T11:52:18.573Z,99.99
2017-10-02T11:53:29.080Z,99.99
2017-10-02T11:54:39.335Z,99.99
2017-10-02T11:55:49.580Z,99.99
2017-10-02T11:56:59.532Z,99.99
2017-10-02T11:58:09.788Z,99.99
2017-10-02T11:59:20.293Z,99.99
2017-10-02T12:00:30.227Z,99.99
2017-10-02T12:01:40.496Z,99.99
2017-10-02T12:02:50.739Z,99.99
2017-10-02T12:04:00.361Z,99.99
2017-10-02T12:05:10.904Z,99.99
2017-10-02T12:06:20.836Z,99.99
2017-10-02T12:07:30.455Z,99.99
2017-10-02T12:08:40.696Z,99.99
2017-10-02T12:09:50.631Z,99.99
2017-10-02T12:11:00.831Z,99.99
2017-10-02T12:12:11.086Z,99.99
2017-10-02T12:13:21.021Z,99.99
2017-10-02T12:14:30.966Z,99.99
2017-10-02T12:15:41.222Z,99.99
2017-10-02T12:16:51.407Z,99.99
2017-10-02T12:18:01.664Z,99.99
2017-10-02T12:19:11.602Z,99.99
2017-10-02T12:20:21.542Z,99.99
2017-10-02T12:21:31.479Z,99.99
2017-10-02T12:22:41.349Z,99.99
2017-10-02T12:23:51.312Z,99.99
2017-10-02T12:25:01.244Z,99.99
2017-10-02T12:26:11.509Z,99.99
2017-10-02T12:27:21.996Z,99.99
2017-10-02T12:28:31.873Z,99.99
2017-10-02T12:29:42.128Z,99.99
2017-10-02T12:30:52.408Z,99.99
2017-10-02T12:32:02.669Z,99.99
2017-10-02T12:33:12.932Z,99.99
2017-10-02T12:34:23.120Z,99.99
2017-10-02T12:35:33.389Z,99.99
2017-10-02T12:36:43.317Z,99.99
2017-10-02T12:37:53.588Z,99.99
2017-10-02T12:39:03.862Z,99.99
2017-10-02T12:40:14.043Z,99.99
2017-10-02T12:41:24.293Z,99.99
2017-10-02T12:42:34.237Z,99.99
2017-10-02T12:43:44.495Z,99.99
2017-10-02T12:44:54.745Z,99.99
2017-10-02T12:46:04.925Z,99.99
2017-10-02T12:47:15.168Z,99.99
2017-10-02T12:48:25.406Z,99.99
2017-10-02T12:49:35.649Z,99.99
2017-10-02T12:50:45.918Z,99.99
2017-10-02T12:51:56.421Z,99.99
2017-10-02T12:53:06.663Z,99.99
2017-10-02T12:54:16.920Z,99.99
2017-10-02T12:55:27.205Z,99.99
2017-10-02T12:56:37.143Z,99.99
2017-10-02T12:57:47.659Z,99.99
2017-10-02T12:58:57.944Z,99.99
2017-10-02T13:00:07.872Z,99.99
2017-10-02T13:01:17.182Z,99.99
2017-10-02T13:02:27.415Z,99.99
2017-10-02T13:03:37.912Z,99.99
2017-10-02T13:04:47.846Z,99.99
2017-10-02T13:05:58.106Z,99.99
2017-10-02T13:07:08.397Z,99.99
2017-10-02T13:08:18.336Z,99.99
2017-10-02T13:09:28.856Z,99.99
2017-10-02T13:10:38.476Z,99.99
2017-10-02T13:11:48.750Z,99.99
2017-10-02T13:12:59.018Z,99.99
2017-10-02T13:14:09.270Z,99.99
2017-10-02T13:15:19.524Z,99.99
2017-10-02T13:16:29.807Z,99.99
2017-10-02T13:17:40.061Z,99.99
2017-10-02T13:18:50.002Z,99.99
2017-10-02T13:20:00.268Z,99.99
2017-10-02T13:21:10.772Z,99.99
2017-10-02T13:22:20.399Z,99.99
2017-10-02T13:23:30.673Z,99.99
2017-10-02T13:24:40.923Z,99.99
2017-10-02T13:25:50.541Z,99.99
2017-10-02T13:27:01.052Z,99.99
2017-10-02T13:28:10.989Z,99.99
2017-10-02T13:29:21.251Z,99.99
2017-10-02T13:30:31.506Z,99.99
2017-10-02T13:31:41.773Z,99.99
2017-10-02T13:32:52.273Z,99.99
2017-10-02T13:34:02.210Z,99.99
2017-10-02T13:35:12.452Z,99.99
2017-10-02T13:36:22.409Z,99.99
2017-10-02T13:37:32.352Z,99.99
2017-10-02T13:38:42.856Z,99.99
2017-10-02T13:39:53.109Z,99.99
2017-10-02T13:41:02.737Z,99.99
2017-10-02T13:42:12.679Z,99.99
2017-10-02T13:43:22.942Z,99.99
2017-10-02T13:44:33.126Z,99.66
2017-10-02T13:45:43.391Z,99.52
2017-10-02T13:46:53.643Z,98.94
2017-10-02T13:48:03.895Z,98.61
2017-10-02T13:49:14.147Z,98.37
2017-10-02T13:50:23.698Z,97.99
2017-10-02T13:51:33.633Z,97.8
2017-10-02T13:52:43.890Z,97.8
2017-10-02T13:53:53.852Z,96.66
2017-10-02T13:55:03.805Z,95.79
2017-10-02T13:56:14.312Z,95.7
2017-10-02T13:57:24.578Z,95.03
2017-10-02T13:58:34.509Z,94.55
2017-10-02T13:59:44.754Z,94.46
2017-10-02T14:00:55.017Z,94.65
2017-10-02T14:02:05.217Z,94.55
2017-10-02T14:03:14.836Z,94.27
2017-10-02T14:04:24.782Z,93.79
2017-10-02T14:05:35.045Z,93.5
2017-10-02T14:06:44.975Z,93.21
2017-10-02T14:07:55.175Z,91.97
2017-10-02T14:09:05.445Z,92.16
2017-10-02T14:10:15.742Z,91.78
2017-10-02T14:11:25.990Z,91.11
2017-10-02T14:12:36.247Z,91.21
2017-10-02T14:13:45.800Z,90.21
2017-10-02T14:14:56.057Z,90.25
2017-10-02T14:16:06.314Z,90.21
2017-10-02T14:17:16.564Z,89.78
2017-10-02T14:18:26.820Z,89.68
2017-10-02T14:19:37.029Z,89.87
2017-10-02T14:20:47.274Z,89.73
2017-10-02T14:21:57.530Z,89.97
2017-10-02T14:23:07.793Z,89.35
2017-10-02T14:24:17.731Z,89.45
2017-10-02T14:25:28.226Z,89.73
2017-10-02T14:26:38.472Z,89.64
2017-10-02T14:27:48.724Z,89.92
2017-10-02T14:28:58.970Z,88.97
2017-10-02T14:30:09.214Z,89.39
2017-10-02T14:31:19.704Z,89.59
2017-10-02T14:32:29.971Z,89.06
2017-10-02T14:33:40.249Z,89.45
2017-10-02T14:34:50.494Z,89.35
2017-10-02T14:36:00.753Z,89.87
2017-10-02T14:37:10.947Z,89.59
2017-10-02T14:38:21.203Z,89.59
2017-10-02T14:39:31.143Z,89.35
2017-10-02T14:40:41.088Z,89.25
2017-10-02T14:41:51.388Z,89.35
2017-10-02T14:43:01.881Z,89.3
2017-10-02T14:44:11.825Z,89.25
2017-10-02T14:45:22.081Z,89.54
2017-10-02T14:46:32.351Z,89.3
2017-10-02T14:47:42.599Z,89.35
2017-10-02T14:48:53.105Z,88.78
2017-10-02T14:50:03.365Z,89.01
2017-10-02T14:51:13.652Z,89.06
2017-10-02T14:52:23.587Z,88.97
2017-10-02T14:53:33.839Z,89.06
2017-10-02T14:54:44.350Z,88.87
2017-10-02T14:55:54.622Z,88.78
2017-10-02T14:57:04.250Z,89.06
2017-10-02T14:58:14.492Z,89.06
2017-10-02T14:59:24.743Z,88.4
2017-10-02T15:00:34.934Z,88.49
2017-10-02T15:01:45.176Z,87.73
2017-10-02T15:02:55.115Z,88.25
2017-10-02T15:04:05.068Z,88.2
2017-10-02T15:05:14.685Z,87.39